sensor_id;sensor_type;location;lat;lon;timestamp;pressure;altitude;pressure_sealevel;temperature;humidity
32873;BME280;19224;52.462;16.898;2023-03-13T00:00:43;99453.00;;;3.79;100.00
32873;BME280;19224;52.462;16.898;2023-03-13T00:03:15;99448.50;;;3.81;100.00
32873;BME280;19224;52.462;16.898;2023-03-13T00:05:47;99443.69;;;3.79;100.00
32873;BME280;19224;52.462;16.898;2023-03-13T00:08:24;99450.23;;;3.82;100.00
32873;BME280;19224;52.462;16.898;2023-03-13T00:10:55;99443.06;;;3.84;100.00
32873;BME280;19224;52.462;16.898;2023-03-13T00:13:28;99439.85;;;3.88;100.00
32873;BME280;19224;52.462;16.898;2023-03-13T00:16:11;99448.21;;;3.90;100.00
32873;BME280;19224;52.462;16.898;2023-03-13T00:18:48;99439.70;;;3.92;100.00
32873;BME280;19224;52.462;16.898;2023-03-13T00:21:22;99439.64;;;3.94;100.00
32873;BME280;19224;52.462;16.898;2023-03-13T00:23:54;99443.19;;;3.94;100.00
32873;BME280;19224;52.462;16.898;2023-03-13T00:26:29;99449.44;;;3.93;100.00
32873;BME280;19224;52.462;16.898;2023-03-13T00:29:01;99456.06;;;3.95;100.00
32873;BME280;19224;52.462;16.898;2023-03-13T00:31:34;99442.30;;;3.94;100.00
32873;BME280;19224;52.462;16.898;2023-03-13T00:34:05;99445.03;;;3.92;100.00
32873;BME280;19224;52.462;16.898;2023-03-13T00:36:36;99443.56;;;3.97;100.00
32873;BME280;19224;52.462;16.898;2023-03-13T00:39:10;99432.91;;;3.97;100.00
32873;BME280;19224;52.462;16.898;2023-03-13T00:41:43;99423.92;;;3.99;100.00
32873;BME280;19224;52.462;16.898;2023-03-13T00:44:15;99416.92;;;3.97;100.00
32873;BME280;19224;52.462;16.898;2023-03-13T00:46:49;99421.26;;;3.99;100.00
32873;BME280;19224;52.462;16.898;2023-03-13T00:49:19;99414.12;;;4.01;100.00
32873;BME280;19224;52.462;16.898;2023-03-13T00:51:53;99409.09;;;4.05;100.00
32873;BME280;19224;52.462;16.898;2023-03-13T00:54:26;99416.45;;;4.10;100.00
32873;BME280;19224;52.462;16.898;2023-03-13T00:56:56;99410.16;;;4.13;100.00
32873;BME280;19224;52.462;16.898;2023-03-13T00:59:27;99416.45;;;4.10;100.00
32873;BME280;19224;52.462;16.898;2023-03-13T01:01:58;99412.89;;;4.11;100.00
32873;BME280;19224;52.462;16.898;2023-03-13T01:04:30;99413.59;;;4.16;100.00
32873;BME280;19224;52.462;16.898;2023-03-13T01:07:05;99408.12;;;4.21;100.00
32873;BME280;19224;52.462;16.898;2023-03-13T01:09:37;99413.81;;;4.23;100.00
32873;BME280;19224;52.462;16.898;2023-03-13T01:12:08;99407.20;;;4.22;100.00
32873;BME280;19224;52.462;16.898;2023-03-13T01:14:40;99411.45;;;4.27;100.00
32873;BME280;19224;52.462;16.898;2023-03-13T01:17:12;99415.73;;;4.31;100.00
32873;BME280;19224;52.462;16.898;2023-03-13T01:19:43;99401.00;;;4.34;100.00
32873;BME280;19224;52.462;16.898;2023-03-13T01:22:14;99401.70;;;4.39;100.00
32873;BME280;19224;52.462;16.898;2023-03-13T01:24:55;99409.06;;;4.44;100.00
32873;BME280;19224;52.462;16.898;2023-03-13T01:27:22;99409.83;;;4.48;100.00
32873;BME280;19224;52.462;16.898;2023-03-13T01:29:55;99408.17;;;4.45;100.00
32873;BME280;19224;52.462;16.898;2023-03-13T01:32:25;99410.23;;;4.49;100.00
32873;BME280;19224;52.462;16.898;2023-03-13T01:35:01;99400.09;;;4.47;100.00
32873;BME280;19224;52.462;16.898;2023-03-13T01:37:33;99394.97;;;4.54;100.00
32873;BME280;19224;52.462;16.898;2023-03-13T01:40:07;99394.48;;;4.54;100.00
32873;BME280;19224;52.462;16.898;2023-03-13T01:43:11;99383.42;;;4.53;100.00
32873;BME280;19224;52.462;16.898;2023-03-13T01:51:33;99387.49;;;4.52;100.00
32873;BME280;19224;52.462;16.898;2023-03-13T01:54:20;99389.48;;;4.58;100.00
32873;BME280;19224;52.462;16.898;2023-03-13T01:57:08;99392.43;;;4.62;100.00
32873;BME280;19224;52.462;16.898;2023-03-13T01:59:51;99391.50;;;4.63;100.00
32873;BME280;19224;52.462;16.898;2023-03-13T02:02:22;99392.14;;;4.58;100.00
32873;BME280;19224;52.462;16.898;2023-03-13T02:04:56;99393.36;;;4.61;100.00
32873;BME280;19224;52.462;16.898;2023-03-13T02:07:36;99386.58;;;4.64;100.00
32873;BME280;19224;52.462;16.898;2023-03-13T02:10:09;99395.99;;;4.74;100.00
32873;BME280;19224;52.462;16.898;2023-03-13T02:12:41;99398.14;;;4.76;100.00
32873;BME280;19224;52.462;16.898;2023-03-13T02:15:21;99398.09;;;4.77;100.00
32873;BME280;19224;52.462;16.898;2023-03-13T02:17:53;99395.30;;;4.80;100.00
32873;BME280;19224;52.462;16.898;2023-03-13T02:20:24;99396.88;;;4.86;100.00
32873;BME280;19224;52.462;16.898;2023-03-13T02:25:53;99383.67;;;4.83;100.00
32873;BME280;19224;52.462;16.898;2023-03-13T02:28:28;99382.86;;;4.81;100.00
32873;BME280;19224;52.462;16.898;2023-03-13T02:31:00;99374.21;;;4.86;100.00
32873;BME280;19224;52.462;16.898;2023-03-13T02:33:40;99373.69;;;4.88;100.00
32873;BME280;19224;52.462;16.898;2023-03-13T02:36:16;99371.38;;;4.90;100.00
32873;BME280;19224;52.462;16.898;2023-03-13T02:38:52;99376.91;;;4.97;100.00
32873;BME280;19224;52.462;16.898;2023-03-13T02:41:23;99379.28;;;5.05;100.00
32873;BME280;19224;52.462;16.898;2023-03-13T02:43:57;99380.49;;;5.08;100.00
32873;BME280;19224;52.462;16.898;2023-03-13T02:46:35;99376.40;;;5.11;100.00
32873;BME280;19224;52.462;16.898;2023-03-13T02:52:09;99372.83;;;5.22;100.00
32873;BME280;19224;52.462;16.898;2023-03-13T02:54:36;99367.84;;;5.24;100.00
32873;BME280;19224;52.462;16.898;2023-03-13T02:57:07;99377.19;;;5.24;100.00
32873;BME280;19224;52.462;16.898;2023-03-13T02:59:42;99376.61;;;5.28;100.00
32873;BME280;19224;52.462;16.898;2023-03-13T03:02:16;99368.61;;;5.28;100.00
32873;BME280;19224;52.462;16.898;2023-03-13T03:04:47;99377.95;;;5.28;100.00
32873;BME280;19224;52.462;16.898;2023-03-13T03:07:18;99380.21;;;5.27;100.00
32873;BME280;19224;52.462;16.898;2023-03-13T03:09:49;99384.62;;;5.28;100.00
32873;BME280;19224;52.462;16.898;2023-03-13T03:12:21;99390.36;;;5.29;100.00
32873;BME280;19224;52.462;16.898;2023-03-13T03:14:52;99386.31;;;5.30;100.00
32873;BME280;19224;52.462;16.898;2023-03-13T03:17:32;99382.13;;;5.35;100.00
32873;BME280;19224;52.462;16.898;2023-03-13T03:20:08;99377.81;;;5.31;100.00
32873;BME280;19224;52.462;16.898;2023-03-13T03:22:41;99380.44;;;5.32;100.00
32873;BME280;19224;52.462;16.898;2023-03-13T03:25:11;99374.70;;;5.31;100.00
32873;BME280;19224;52.462;16.898;2023-03-13T03:27:46;99366.16;;;5.33;100.00
32873;BME280;19224;52.462;16.898;2023-03-13T03:30:20;99362.61;;;5.33;100.00
32873;BME280;19224;52.462;16.898;2023-03-13T03:32:50;99362.03;;;5.36;100.00
32873;BME280;19224;52.462;16.898;2023-03-13T03:35:35;99356.52;;;5.41;100.00
32873;BME280;19224;52.462;16.898;2023-03-13T03:38:07;99355.58;;;5.42;100.00
32873;BME280;19224;52.462;16.898;2023-03-13T03:40:39;99356.88;;;5.43;100.00
32873;BME280;19224;52.462;16.898;2023-03-13T03:43:10;99363.02;;;5.45;100.00
32873;BME280;19224;52.462;16.898;2023-03-13T03:45:41;99354.88;;;5.48;100.00
32873;BME280;19224;52.462;16.898;2023-03-13T03:48:12;99352.16;;;5.50;100.00
32873;BME280;19224;52.462;16.898;2023-03-13T03:50:43;99350.59;;;5.56;100.00
32873;BME280;19224;52.462;16.898;2023-03-13T03:53:16;99348.59;;;5.61;100.00
32873;BME280;19224;52.462;16.898;2023-03-13T03:55:47;99347.21;;;5.62;100.00
32873;BME280;19224;52.462;16.898;2023-03-13T03:58:20;99344.27;;;5.68;100.00
32873;BME280;19224;52.462;16.898;2023-03-13T04:00:54;99341.60;;;5.68;100.00
32873;BME280;19224;52.462;16.898;2023-03-13T04:03:27;99340.97;;;5.73;100.00
32873;BME280;19224;52.462;16.898;2023-03-13T04:05:58;99330.15;;;5.76;100.00
32873;BME280;19224;52.462;16.898;2023-03-13T04:08:28;99329.11;;;5.80;100.00
32873;BME280;19224;52.462;16.898;2023-03-13T04:11:03;99327.24;;;5.82;100.00
32873;BME280;19224;52.462;16.898;2023-03-13T04:13:41;99323.19;;;5.84;100.00
32873;BME280;19224;52.462;16.898;2023-03-13T04:16:14;99322.95;;;5.90;100.00
32873;BME280;19224;52.462;16.898;2023-03-13T04:18:45;99312.97;;;5.93;100.00
32873;BME280;19224;52.462;16.898;2023-03-13T04:21:19;99312.97;;;5.93;100.00
32873;BME280;19224;52.462;16.898;2023-03-13T04:23:54;99306.64;;;5.96;100.00
32873;BME280;19224;52.462;16.898;2023-03-13T04:26:24;99305.17;;;5.99;100.00
32873;BME280;19224;52.462;16.898;2023-03-13T04:28:55;99303.38;;;5.99;100.00
32873;BME280;19224;52.462;16.898;2023-03-13T04:31:27;99288.48;;;6.04;100.00
32873;BME280;19224;52.462;16.898;2023-03-13T04:33:58;99305.56;;;6.00;100.00
32873;BME280;19224;52.462;16.898;2023-03-13T04:36:28;99292.16;;;6.01;100.00
32873;BME280;19224;52.462;16.898;2023-03-13T04:38:59;99292.10;;;6.03;100.00
32873;BME280;19224;52.462;16.898;2023-03-13T04:41:29;99288.89;;;6.05;100.00
32873;BME280;19224;52.462;16.898;2023-03-13T04:44:00;99288.14;;;6.01;100.00
32873;BME280;19224;52.462;16.898;2023-03-13T04:46:32;99285.81;;;6.04;100.00
32873;BME280;19224;52.462;16.898;2023-03-13T04:49:04;99285.87;;;6.02;100.00
32873;BME280;19224;52.462;16.898;2023-03-13T04:51:36;99283.55;;;6.05;100.00
32873;BME280;19224;52.462;16.898;2023-03-13T04:54:07;99283.28;;;6.01;100.00
32873;BME280;19224;52.462;16.898;2023-03-13T04:56:42;99277.51;;;6.00;100.00
32873;BME280;19224;52.462;16.898;2023-03-13T04:59:13;99278.79;;;6.01;100.00
32873;BME280;19224;52.462;16.898;2023-03-13T05:01:48;99284.63;;;6.01;100.00
32873;BME280;19224;52.462;16.898;2023-03-13T05:04:21;99285.52;;;6.00;100.00
32873;BME280;19224;52.462;16.898;2023-03-13T05:06:56;99284.67;;;5.99;100.00
32873;BME280;19224;52.462;16.898;2023-03-13T05:09:26;99275.98;;;6.04;100.00
32873;BME280;19224;52.462;16.898;2023-03-13T05:11:58;99271.52;;;6.05;100.00
32873;BME280;19224;52.462;16.898;2023-03-13T05:14:31;99272.86;;;6.05;100.00
32873;BME280;19224;52.462;16.898;2023-03-13T05:17:06;99265.09;;;6.09;100.00
32873;BME280;19224;52.462;16.898;2023-03-13T05:19:45;99269.90;;;6.11;100.00
32873;BME280;19224;52.462;16.898;2023-03-13T05:22:15;99264.70;;;6.18;100.00
32873;BME280;19224;52.462;16.898;2023-03-13T05:24:46;99264.95;;;6.22;100.00
32873;BME280;19224;52.462;16.898;2023-03-13T05:27:16;99260.89;;;6.23;100.00
32873;BME280;19224;52.462;16.898;2023-03-13T05:29:47;99262.03;;;6.28;100.00
32873;BME280;19224;52.462;16.898;2023-03-13T05:32:22;99259.61;;;6.32;100.00
32873;BME280;19224;52.462;16.898;2023-03-13T05:34:52;99257.02;;;6.40;100.00
32873;BME280;19224;52.462;16.898;2023-03-13T05:37:25;99261.42;;;6.41;100.00
32873;BME280;19224;52.462;16.898;2023-03-13T05:39:57;99255.88;;;6.46;100.00
32873;BME280;19224;52.462;16.898;2023-03-13T05:42:27;99250.38;;;6.49;100.00
32873;BME280;19224;52.462;16.898;2023-03-13T05:44:59;99250.03;;;6.56;100.00
32873;BME280;19224;52.462;16.898;2023-03-13T05:47:30;99242.89;;;6.57;100.00
32873;BME280;19224;52.462;16.898;2023-03-13T05:50:00;99246.36;;;6.59;100.00
32873;BME280;19224;52.462;16.898;2023-03-13T05:52:31;99247.09;;;6.62;100.00
32873;BME280;19224;52.462;16.898;2023-03-13T05:55:02;99238.91;;;6.65;100.00
32873;BME280;19224;52.462;16.898;2023-03-13T05:57:32;99231.08;;;6.71;100.00
32873;BME280;19224;52.462;16.898;2023-03-13T06:00:05;99225.85;;;6.78;100.00
32873;BME280;19224;52.462;16.898;2023-03-13T06:02:42;99225.00;;;6.86;100.00
32873;BME280;19224;52.462;16.898;2023-03-13T06:05:13;99222.63;;;6.98;100.00
32873;BME280;19224;52.462;16.898;2023-03-13T06:07:43;99226.82;;;7.03;100.00
32873;BME280;19224;52.462;16.898;2023-03-13T06:10:14;99224.37;;;7.07;100.00
32873;BME280;19224;52.462;16.898;2023-03-13T06:12:50;99210.63;;;7.15;100.00
32873;BME280;19224;52.462;16.898;2023-03-13T06:15:16;99206.33;;;7.21;100.00
32873;BME280;19224;52.462;16.898;2023-03-13T06:17:47;99212.18;;;7.29;100.00
32873;BME280;19224;52.462;16.898;2023-03-13T06:20:34;99202.98;;;7.34;100.00
32873;BME280;19224;52.462;16.898;2023-03-13T06:22:50;99199.98;;;7.40;100.00
32873;BME280;19224;52.462;16.898;2023-03-13T06:25:21;99194.89;;;7.44;100.00
32873;BME280;19224;52.462;16.898;2023-03-13T06:27:51;99198.03;;;7.52;100.00
32873;BME280;19224;52.462;16.898;2023-03-13T06:30:22;99193.95;;;7.54;100.00
32873;BME280;19224;52.462;16.898;2023-03-13T06:32:52;99195.91;;;7.59;100.00
32873;BME280;19224;52.462;16.898;2023-03-13T06:35:23;99190.31;;;7.63;100.00
32873;BME280;19224;52.462;16.898;2023-03-13T06:38:00;99190.88;;;7.70;100.00
32873;BME280;19224;52.462;16.898;2023-03-13T06:40:27;99192.37;;;7.75;100.00
32873;BME280;19224;52.462;16.898;2023-03-13T06:43:01;99186.72;;;7.81;100.00
32873;BME280;19224;52.462;16.898;2023-03-13T06:45:37;99182.92;;;7.85;100.00
32873;BME280;19224;52.462;16.898;2023-03-13T06:48:11;99181.52;;;7.87;100.00
32873;BME280;19224;52.462;16.898;2023-03-13T06:50:42;99169.77;;;7.89;100.00
32873;BME280;19224;52.462;16.898;2023-03-13T06:53:19;99168.42;;;7.98;100.00
32873;BME280;19224;52.462;16.898;2023-03-13T06:55:51;99168.74;;;8.00;100.00
32873;BME280;19224;52.462;16.898;2023-03-13T06:58:22;99167.41;;;8.00;100.00
32873;BME280;19224;52.462;16.898;2023-03-13T07:00:52;99165.96;;;8.02;100.00
32873;BME280;19224;52.462;16.898;2023-03-13T07:03:23;99158.56;;;8.07;100.00
32873;BME280;19224;52.462;16.898;2023-03-13T07:05:59;99157.27;;;8.14;100.00
32873;BME280;19224;52.462;16.898;2023-03-13T07:08:30;99151.27;;;8.17;100.00
32873;BME280;19224;52.462;16.898;2023-03-13T07:11:10;99149.66;;;8.23;100.00
32873;BME280;19224;52.462;16.898;2023-03-13T07:13:36;99142.91;;;8.32;100.00
32873;BME280;19224;52.462;16.898;2023-03-13T07:16:10;99144.40;;;8.37;100.00
32873;BME280;19224;52.462;16.898;2023-03-13T07:18:41;99139.64;;;8.42;100.00
32873;BME280;19224;52.462;16.898;2023-03-13T07:21:13;99135.72;;;8.41;100.00
32873;BME280;19224;52.462;16.898;2023-03-13T07:23:44;99130.25;;;8.42;100.00
32873;BME280;19224;52.462;16.898;2023-03-13T07:26:16;99125.13;;;8.46;100.00
32873;BME280;19224;52.462;16.898;2023-03-13T07:28:46;99133.31;;;8.52;100.00
32873;BME280;19224;52.462;16.898;2023-03-13T07:31:20;99129.85;;;8.50;100.00
32873;BME280;19224;52.462;16.898;2023-03-13T07:33:55;99127.00;;;8.53;100.00
32873;BME280;19224;52.462;16.898;2023-03-13T07:36:25;99126.25;;;8.58;100.00
32873;BME280;19224;52.462;16.898;2023-03-13T07:38:56;99123.00;;;8.60;100.00
32873;BME280;19224;52.462;16.898;2023-03-13T07:41:27;99118.44;;;8.62;100.00
32873;BME280;19224;52.462;16.898;2023-03-13T07:43:57;99112.33;;;8.67;100.00
32873;BME280;19224;52.462;16.898;2023-03-13T07:46:28;99111.76;;;8.69;100.00
32873;BME280;19224;52.462;16.898;2023-03-13T07:48:59;99102.88;;;8.75;100.00
32873;BME280;19224;52.462;16.898;2023-03-13T07:51:29;99099.87;;;8.81;100.00
32873;BME280;19224;52.462;16.898;2023-03-13T07:54:00;99095.33;;;8.90;100.00
32873;BME280;19224;52.462;16.898;2023-03-13T07:56:33;99085.36;;;8.92;100.00
32873;BME280;19224;52.462;16.898;2023-03-13T07:59:03;99088.63;;;8.97;100.00
32873;BME280;19224;52.462;16.898;2023-03-13T08:01:36;99085.22;;;9.02;100.00
32873;BME280;19224;52.462;16.898;2023-03-13T08:04:15;99079.09;;;9.07;100.00
32873;BME280;19224;52.462;16.898;2023-03-13T08:06:46;99075.53;;;9.22;100.00
32873;BME280;19224;52.462;16.898;2023-03-13T08:09:20;99076.49;;;9.28;100.00
32873;BME280;19224;52.462;16.898;2023-03-13T08:11:53;99061.38;;;9.34;100.00
32873;BME280;19224;52.462;16.898;2023-03-13T08:14:24;99056.08;;;9.33;100.00
32873;BME280;19224;52.462;16.898;2023-03-13T08:16:56;99062.33;;;9.40;100.00
32873;BME280;19224;52.462;16.898;2023-03-13T08:19:27;99055.03;;;9.42;100.00
32873;BME280;19224;52.462;16.898;2023-03-13T08:21:57;99053.92;;;9.46;100.00
32873;BME280;19224;52.462;16.898;2023-03-13T08:24:28;99040.09;;;9.45;100.00
32873;BME280;19224;52.462;16.898;2023-03-13T08:26:58;99034.14;;;9.47;100.00
32873;BME280;19224;52.462;16.898;2023-03-13T08:29:29;99028.69;;;9.55;100.00
32873;BME280;19224;52.462;16.898;2023-03-13T08:31:59;99034.36;;;9.58;100.00
32873;BME280;19224;52.462;16.898;2023-03-13T08:34:30;99028.51;;;9.65;100.00
32873;BME280;19224;52.462;16.898;2023-03-13T08:37:02;99029.08;;;9.70;100.00
32873;BME280;19224;52.462;16.898;2023-03-13T08:39:34;99025.92;;;9.71;100.00
32873;BME280;19224;52.462;16.898;2023-03-13T08:42:08;99019.01;;;9.74;100.00
32873;BME280;19224;52.462;16.898;2023-03-13T08:44:40;99015.38;;;9.82;100.00
32873;BME280;19224;52.462;16.898;2023-03-13T08:47:15;99006.92;;;9.81;100.00
32873;BME280;19224;52.462;16.898;2023-03-13T08:49:46;99003.09;;;9.78;100.00
32873;BME280;19224;52.462;16.898;2023-03-13T08:52:16;98997.30;;;9.77;100.00
32873;BME280;19224;52.462;16.898;2023-03-13T08:54:48;98993.27;;;9.77;100.00
32873;BME280;19224;52.462;16.898;2023-03-13T08:57:19;98987.89;;;9.77;100.00
32873;BME280;19224;52.462;16.898;2023-03-13T08:59:51;98989.63;;;9.85;100.00
32873;BME280;19224;52.462;16.898;2023-03-13T09:02:22;98999.70;;;9.81;100.00
32873;BME280;19224;52.462;16.898;2023-03-13T09:04:52;98986.38;;;9.94;100.00
32873;BME280;19224;52.462;16.898;2023-03-13T09:07:23;98985.61;;;9.92;100.00
32873;BME280;19224;52.462;16.898;2023-03-13T09:09:58;98980.99;;;9.94;100.00
32873;BME280;19224;52.462;16.898;2023-03-13T09:12:34;98968.31;;;9.96;100.00
32873;BME280;19224;52.462;16.898;2023-03-13T09:15:06;98965.62;;;9.96;100.00
32873;BME280;19224;52.462;16.898;2023-03-13T09:17:44;98961.50;;;10.04;100.00
32873;BME280;19224;52.462;16.898;2023-03-13T09:20:15;98942.01;;;10.08;100.00
32873;BME280;19224;52.462;16.898;2023-03-13T09:22:51;98946.80;;;10.10;100.00
32873;BME280;19224;52.462;16.898;2023-03-13T09:25:29;98930.48;;;10.13;100.00
32873;BME280;19224;52.462;16.898;2023-03-13T09:27:57;98927.84;;;10.25;100.00
32873;BME280;19224;52.462;16.898;2023-03-13T09:30:28;98931.49;;;10.31;100.00
32873;BME280;19224;52.462;16.898;2023-03-13T09:33:00;98919.84;;;10.38;100.00
32873;BME280;19224;52.462;16.898;2023-03-13T09:35:32;98912.31;;;10.43;100.00
32873;BME280;19224;52.462;16.898;2023-03-13T09:38:03;98918.66;;;10.42;100.00
32873;BME280;19224;52.462;16.898;2023-03-13T09:40:40;98909.45;;;10.46;100.00
32873;BME280;19224;52.462;16.898;2023-03-13T09:44:28;98903.11;;;10.40;100.00
32873;BME280;19224;52.462;16.898;2023-03-13T09:46:13;98907.89;;;10.42;100.00
32873;BME280;19224;52.462;16.898;2023-03-13T09:48:49;98900.33;;;10.41;100.00
32873;BME280;19224;52.462;16.898;2023-03-13T09:51:33;98885.61;;;10.40;100.00
32873;BME280;19224;52.462;16.898;2023-03-13T09:54:27;98882.08;;;10.39;100.00
32873;BME280;19224;52.462;16.898;2023-03-13T10:03:29;98890.39;;;10.49;100.00
32873;BME280;19224;52.462;16.898;2023-03-13T10:06:03;98897.70;;;10.47;100.00
32873;BME280;19224;52.462;16.898;2023-03-13T10:08:37;98889.34;;;10.44;100.00
32873;BME280;19224;52.462;16.898;2023-03-13T10:11:36;98885.90;;;10.42;100.00
32873;BME280;19224;52.462;16.898;2023-03-13T10:14:33;98872.89;;;10.49;100.00
32873;BME280;19224;52.462;16.898;2023-03-13T10:19:54;98868.36;;;10.49;100.00
32873;BME280;19224;52.462;16.898;2023-03-13T10:22:26;98862.34;;;10.46;100.00
32873;BME280;19224;52.462;16.898;2023-03-13T10:25:25;98871.17;;;10.48;100.00
32873;BME280;19224;52.462;16.898;2023-03-13T10:27:53;98865.59;;;10.44;100.00
32873;BME280;19224;52.462;16.898;2023-03-13T10:30:34;98853.48;;;10.44;100.00
32873;BME280;19224;52.462;16.898;2023-03-13T10:33:27;98849.95;;;10.43;100.00
32873;BME280;19224;52.462;16.898;2023-03-13T10:36:12;98852.35;;;10.41;100.00
32873;BME280;19224;52.462;16.898;2023-03-13T10:38:54;98853.16;;;10.36;100.00
32873;BME280;19224;52.462;16.898;2023-03-13T10:41:35;98847.70;;;10.30;100.00
32873;BME280;19224;52.462;16.898;2023-03-13T10:44:13;98850.86;;;10.30;100.00
32873;BME280;19224;52.462;16.898;2023-03-13T10:46:42;98844.04;;;10.31;100.00
32873;BME280;19224;52.462;16.898;2023-03-13T10:49:21;98836.81;;;10.32;100.00
32873;BME280;19224;52.462;16.898;2023-03-13T10:52:01;98825.89;;;10.28;100.00
32873;BME280;19224;52.462;16.898;2023-03-13T10:54:36;98827.02;;;10.31;100.00
32873;BME280;19224;52.462;16.898;2023-03-13T10:59:58;98820.80;;;10.30;100.00
32873;BME280;19224;52.462;16.898;2023-03-13T11:02:37;98816.38;;;10.29;100.00
32873;BME280;19224;52.462;16.898;2023-03-13T11:05:40;98813.78;;;10.28;100.00
32873;BME280;19224;52.462;16.898;2023-03-13T11:08:35;98812.15;;;10.25;100.00
32873;BME280;19224;52.462;16.898;2023-03-13T11:11:18;98812.34;;;10.29;100.00
32873;BME280;19224;52.462;16.898;2023-03-13T11:13:53;98811.47;;;10.29;100.00
32873;BME280;19224;52.462;16.898;2023-03-13T11:16:28;98801.45;;;10.31;100.00
32873;BME280;19224;52.462;16.898;2023-03-13T11:22:27;98787.32;;;10.34;100.00
32873;BME280;19224;52.462;16.898;2023-03-13T11:28:14;98790.31;;;10.30;100.00
32873;BME280;19224;52.462;16.898;2023-03-13T11:31:12;98784.99;;;10.23;100.00
32873;BME280;19224;52.462;16.898;2023-03-13T11:36:59;98782.63;;;10.11;100.00
32873;BME280;19224;52.462;16.898;2023-03-13T11:49:17;98766.11;;;10.10;100.00
32873;BME280;19224;52.462;16.898;2023-03-13T11:52:06;98765.43;;;10.14;100.00
32873;BME280;19224;52.462;16.898;2023-03-13T11:55:06;98766.19;;;10.16;100.00
32873;BME280;19224;52.462;16.898;2023-03-13T12:00:34;98760.97;;;10.20;100.00
32873;BME280;19224;52.462;16.898;2023-03-13T12:05:59;98758.65;;;10.21;100.00
32873;BME280;19224;52.462;16.898;2023-03-13T12:08:43;98754.90;;;10.23;100.00
32873;BME280;19224;52.462;16.898;2023-03-13T12:11:46;98743.30;;;10.23;100.00
32873;BME280;19224;52.462;16.898;2023-03-13T12:16:58;98732.25;;;10.33;100.00
32873;BME280;19224;52.462;16.898;2023-03-13T12:25:27;98722.67;;;10.29;100.00
32873;BME280;19224;52.462;16.898;2023-03-13T12:28:28;98727.22;;;10.28;100.00
32873;BME280;19224;52.462;16.898;2023-03-13T12:36:40;98716.73;;;10.43;100.00
32873;BME280;19224;52.462;16.898;2023-03-13T12:39:36;98704.67;;;10.49;100.00
32873;BME280;19224;52.462;16.898;2023-03-13T12:44:50;98695.48;;;10.46;100.00
32873;BME280;19224;52.462;16.898;2023-03-13T12:53:44;98692.45;;;10.63;100.00
32873;BME280;19224;52.462;16.898;2023-03-13T12:56:34;98691.10;;;10.63;100.00
32873;BME280;19224;52.462;16.898;2023-03-13T12:59:26;98679.36;;;10.64;100.00
32873;BME280;19224;52.462;16.898;2023-03-13T13:01:58;98673.19;;;10.69;100.00
32873;BME280;19224;52.462;16.898;2023-03-13T13:04:32;98663.02;;;10.67;100.00
32873;BME280;19224;52.462;16.898;2023-03-13T13:07:19;98655.83;;;10.73;100.00
32873;BME280;19224;52.462;16.898;2023-03-13T13:09:57;98654.63;;;10.77;100.00
32873;BME280;19224;52.462;16.898;2023-03-13T13:12:19;98648.88;;;10.76;100.00
32873;BME280;19224;52.462;16.898;2023-03-13T13:14:56;98645.42;;;10.86;100.00
32873;BME280;19224;52.462;16.898;2023-03-13T13:17:49;98644.50;;;10.80;100.00
32873;BME280;19224;52.462;16.898;2023-03-13T13:20:39;98641.21;;;10.82;100.00
32873;BME280;19224;52.462;16.898;2023-03-13T13:31:55;98634.41;;;11.02;100.00
32873;BME280;19224;52.462;16.898;2023-03-13T13:39:52;98625.12;;;11.24;100.00
32873;BME280;19224;52.462;16.898;2023-03-13T13:42:36;98628.83;;;11.28;100.00
32873;BME280;19224;52.462;16.898;2023-03-13T13:48:30;98618.38;;;11.47;100.00
32873;BME280;19224;52.462;16.898;2023-03-13T13:54:03;98616.39;;;11.62;100.00
32873;BME280;19224;52.462;16.898;2023-03-13T13:56:47;98604.39;;;11.66;100.00
32873;BME280;19224;52.462;16.898;2023-03-13T13:59:42;98614.11;;;11.74;100.00
32873;BME280;19224;52.462;16.898;2023-03-13T14:02:24;98616.20;;;11.76;100.00
32873;BME280;19224;52.462;16.898;2023-03-13T14:05:30;98619.53;;;11.79;100.00
32873;BME280;19224;52.462;16.898;2023-03-13T14:10:50;98625.64;;;11.76;100.00
32873;BME280;19224;52.462;16.898;2023-03-13T14:13:22;98612.94;;;11.83;100.00
32873;BME280;19224;52.462;16.898;2023-03-13T14:15:53;98621.80;;;11.91;100.00
32873;BME280;19224;52.462;16.898;2023-03-13T14:18:29;98607.08;;;11.94;100.00
32873;BME280;19224;52.462;16.898;2023-03-13T14:21:06;98604.75;;;11.95;100.00
32873;BME280;19224;52.462;16.898;2023-03-13T14:23:46;98607.97;;;12.00;100.00
32873;BME280;19224;52.462;16.898;2023-03-13T14:26:25;98607.46;;;12.01;100.00
32873;BME280;19224;52.462;16.898;2023-03-13T14:29:01;98594.95;;;12.00;100.00
32873;BME280;19224;52.462;16.898;2023-03-13T14:31:38;98607.48;;;12.12;100.00
32873;BME280;19224;52.462;16.898;2023-03-13T14:34:16;98607.16;;;12.27;100.00
32873;BME280;19224;52.462;16.898;2023-03-13T14:37:00;98599.94;;;12.33;100.00
32873;BME280;19224;52.462;16.898;2023-03-13T14:39:35;98602.75;;;12.37;100.00
32873;BME280;19224;52.462;16.898;2023-03-13T14:42:14;98589.01;;;12.46;100.00
32873;BME280;19224;52.462;16.898;2023-03-13T14:44:46;98594.16;;;12.49;100.00
32873;BME280;19224;52.462;16.898;2023-03-13T14:47:26;98592.08;;;12.58;100.00
32873;BME280;19224;52.462;16.898;2023-03-13T14:50:08;98590.11;;;12.65;100.00
32873;BME280;19224;52.462;16.898;2023-03-13T14:52:36;98582.41;;;12.66;100.00
32873;BME280;19224;52.462;16.898;2023-03-13T14:55:29;98580.55;;;12.72;100.00
32873;BME280;19224;52.462;16.898;2023-03-13T14:58:25;98592.81;;;12.76;100.00
32873;BME280;19224;52.462;16.898;2023-03-13T15:01:13;98585.46;;;12.84;100.00
32873;BME280;19224;52.462;16.898;2023-03-13T15:03:50;98584.84;;;12.80;100.00